sensor_id;sensor_type;location;lat;lon;timestamp;temperature;humidity
74220;DHT22;62580;54.416;11.120;2022-12-13T00:02:07;17.70;40.90
74220;DHT22;62580;54.416;11.120;2022-12-13T00:12:08;17.70;40.90
74220;DHT22;62580;54.416;11.120;2022-12-13T00:22:10;17.70;41.00
74220;DHT22;62580;54.416;11.120;2022-12-13T00:32:11;17.60;40.90
74220;DHT22;62580;54.416;11.120;2022-12-13T00:42:13;17.70;41.00
74220;DHT22;62580;54.416;11.120;2022-12-13T00:52:13;17.70;41.00
74220;DHT22;62580;54.416;11.120;2022-12-13T01:02:15;17.70;40.90
74220;DHT22;62580;54.416;11.120;2022-12-13T01:12:16;17.70;40.90
74220;DHT22;62580;54.416;11.120;2022-12-13T01:22:18;17.70;40.80
74220;DHT22;62580;54.416;11.120;2022-12-13T01:32:18;17.70;40.80
74220;DHT22;62580;54.416;11.120;2022-12-13T01:42:20;17.70;40.90
74220;DHT22;62580;54.416;11.120;2022-12-13T01:52:21;17.70;40.90
74220;DHT22;62580;54.416;11.120;2022-12-13T02:02:23;17.70;40.90
74220;DHT22;62580;54.416;11.120;2022-12-13T02:12:26;17.70;40.90
74220;DHT22;62580;54.416;11.120;2022-12-13T02:22:46;17.70;40.80
74220;DHT22;62580;54.416;11.120;2022-12-13T02:33:12;17.70;40.80
74220;DHT22;62580;54.416;11.120;2022-12-13T02:43:21;17.70;40.80
74220;DHT22;62580;54.416;11.120;2022-12-13T02:53:24;17.70;40.80
74220;DHT22;62580;54.416;11.120;2022-12-13T03:03:34;17.70;40.90
74220;DHT22;62580;54.416;11.120;2022-12-13T03:13:46;17.70;40.80
74220;DHT22;62580;54.416;11.120;2022-12-13T03:23:48;17.70;40.90
74220;DHT22;62580;54.416;11.120;2022-12-13T03:33:50;17.60;40.80
74220;DHT22;62580;54.416;11.120;2022-12-13T03:43:51;17.70;40.80
74220;DHT22;62580;54.416;11.120;2022-12-13T03:53:53;17.70;40.80
74220;DHT22;62580;54.416;11.120;2022-12-13T04:03:53;17.70;40.70
74220;DHT22;62580;54.416;11.120;2022-12-13T04:13:55;17.70;40.80
74220;DHT22;62580;54.416;11.120;2022-12-13T04:23:56;17.70;40.90
74220;DHT22;62580;54.416;11.120;2022-12-13T04:33:58;17.70;40.90
74220;DHT22;62580;54.416;11.120;2022-12-13T04:43:59;17.70;40.90
74220;DHT22;62580;54.416;11.120;2022-12-13T04:54:01;17.70;40.80
74220;DHT22;62580;54.416;11.120;2022-12-13T05:04:01;17.70;40.90
74220;DHT22;62580;54.416;11.120;2022-12-13T05:14:03;17.70;40.90
74220;DHT22;62580;54.416;11.120;2022-12-13T05:24:05;17.70;41.00
74220;DHT22;62580;54.416;11.120;2022-12-13T05:34:07;17.70;40.90
74220;DHT22;62580;54.416;11.120;2022-12-13T05:44:07;17.60;40.80
74220;DHT22;62580;54.416;11.120;2022-12-13T05:54:09;17.70;40.90
74220;DHT22;62580;54.416;11.120;2022-12-13T06:04:11;17.70;40.80
74220;DHT22;62580;54.416;11.120;2022-12-13T06:14:13;17.70;40.90
74220;DHT22;62580;54.416;11.120;2022-12-13T06:24:17;17.70;40.80
74220;DHT22;62580;54.416;11.120;2022-12-13T06:34:19;17.70;40.90
74220;DHT22;62580;54.416;11.120;2022-12-13T06:44:20;17.70;41.00
74220;DHT22;62580;54.416;11.120;2022-12-13T06:54:22;17.70;40.90
74220;DHT22;62580;54.416;11.120;2022-12-13T07:04:22;17.70;40.90
74220;DHT22;62580;54.416;11.120;2022-12-13T07:14:24;17.70;40.90
74220;DHT22;62580;54.416;11.120;2022-12-13T07:24:25;17.70;40.90
74220;DHT22;62580;54.416;11.120;2022-12-13T07:34:29;17.70;40.90
74220;DHT22;62580;54.416;11.120;2022-12-13T07:44:31;17.70;41.00
74220;DHT22;62580;54.416;11.120;2022-12-13T07:54:33;17.60;40.90
74220;DHT22;62580;54.416;11.120;2022-12-13T08:04:34;17.70;41.00
74220;DHT22;62580;54.416;11.120;2022-12-13T08:14:36;17.70;40.90
74220;DHT22;62580;54.416;11.120;2022-12-13T08:24:39;17.70;40.90
74220;DHT22;62580;54.416;11.120;2022-12-13T08:34:41;17.70;40.90
74220;DHT22;62580;54.416;11.120;2022-12-13T08:44:42;17.70;41.00
74220;DHT22;62580;54.416;11.120;2022-12-13T08:54:44;17.70;40.90
74220;DHT22;62580;54.416;11.120;2022-12-13T09:04:44;17.70;40.90
74220;DHT22;62580;54.416;11.120;2022-12-13T09:14:46;17.60;40.90
74220;DHT22;62580;54.416;11.120;2022-12-13T09:24:47;17.60;40.90
74220;DHT22;62580;54.416;11.120;2022-12-13T09:34:49;17.70;40.90
74220;DHT22;62580;54.416;11.120;2022-12-13T09:44:52;17.70;40.80
74220;DHT22;62580;54.416;11.120;2022-12-13T09:54:57;17.70;40.70
74220;DHT22;62580;54.416;11.120;2022-12-13T10:05:13;17.70;40.80
74220;DHT22;62580;54.416;11.120;2022-12-13T10:15:18;17.70;38.50
74220;DHT22;62580;54.416;11.120;2022-12-13T10:25:44;17.70;38.80
74220;DHT22;62580;54.416;11.120;2022-12-13T10:36:01;17.70;38.60
74220;DHT22;62580;54.416;11.120;2022-12-13T10:46:03;17.70;38.80
74220;DHT22;62580;54.416;11.120;2022-12-13T10:56:05;17.70;39.00
74220;DHT22;62580;54.416;11.120;2022-12-13T11:06:12;17.70;39.30
74220;DHT22;62580;54.416;11.120;2022-12-13T11:16:20;17.70;39.40
74220;DHT22;62580;54.416;11.120;2022-12-13T11:26:24;17.70;39.40
74220;DHT22;62580;54.416;11.120;2022-12-13T11:36:34;17.70;39.50
74220;DHT22;62580;54.416;11.120;2022-12-13T11:46:42;17.70;39.60
74220;DHT22;62580;54.416;11.120;2022-12-13T11:56:44;17.70;39.70
74220;DHT22;62580;54.416;11.120;2022-12-13T12:06:51;17.70;39.70
74220;DHT22;62580;54.416;11.120;2022-12-13T12:16:57;17.70;39.70
74220;DHT22;62580;54.416;11.120;2022-12-13T12:27:11;17.70;39.80
74220;DHT22;62580;54.416;11.120;2022-12-13T12:37:20;17.70;39.80
74220;DHT22;62580;54.416;11.120;2022-12-13T12:47:31;17.80;40.00
74220;DHT22;62580;54.416;11.120;2022-12-13T12:57:42;17.80;40.00
74220;DHT22;62580;54.416;11.120;2022-12-13T13:07:47;17.70;39.90
74220;DHT22;62580;54.416;11.120;2022-12-13T13:17:49;17.80;40.00
74220;DHT22;62580;54.416;11.120;2022-12-13T13:27:51;17.60;40.00
74220;DHT22;62580;54.416;11.120;2022-12-13T13:38:01;17.70;40.00
74220;DHT22;62580;54.416;11.120;2022-12-13T13:48:23;17.70;39.90
74220;DHT22;62580;54.416;11.120;2022-12-13T14:20:02;17.70;40.00
74220;DHT22;62580;54.416;11.120;2022-12-13T14:30:12;17.70;40.00
74220;DHT22;62580;54.416;11.120;2022-12-13T14:40:25;17.70;40.00
74220;DHT22;62580;54.416;11.120;2022-12-13T14:50:32;17.70;39.90
74220;DHT22;62580;54.416;11.120;2022-12-13T15:00:37;17.60;40.00
74220;DHT22;62580;54.416;11.120;2022-12-13T15:10:42;17.70;40.00
74220;DHT22;62580;54.416;11.120;2022-12-13T15:20:45;17.80;40.20
74220;DHT22;62580;54.416;11.120;2022-12-13T15:30:47;17.70;40.10
74220;DHT22;62580;54.416;11.120;2022-12-13T15:40:49;17.70;40.10
74220;DHT22;62580;54.416;11.120;2022-12-13T15:51:04;17.70;40.10
74220;DHT22;62580;54.416;11.120;2022-12-13T16:01:05;17.70;40.00
74220;DHT22;62580;54.416;11.120;2022-12-13T16:11:07;17.70;40.10
74220;DHT22;62580;54.416;11.120;2022-12-13T16:21:08;17.70;40.10
74220;DHT22;62580;54.416;11.120;2022-12-13T16:31:18;17.70;40.10
74220;DHT22;62580;54.416;11.120;2022-12-13T16:41:19;17.70;40.10
74220;DHT22;62580;54.416;11.120;2022-12-13T16:51:21;17.70;40.10
74220;DHT22;62580;54.416;11.120;2022-12-13T17:01:22;17.80;40.10
74220;DHT22;62580;54.416;11.120;2022-12-13T17:11:24;17.80;40.10
74220;DHT22;62580;54.416;11.120;2022-12-13T17:21:25;17.70;40.10
74220;DHT22;62580;54.416;11.120;2022-12-13T17:31:27;17.60;40.20
74220;DHT22;62580;54.416;11.120;2022-12-13T17:41:28;17.60;40.20
74220;DHT22;62580;54.416;11.120;2022-12-13T17:51:30;17.70;40.20
74220;DHT22;62580;54.416;11.120;2022-12-13T18:01:31;17.70;40.00
74220;DHT22;62580;54.416;11.120;2022-12-13T18:11:33;17.80;40.00
74220;DHT22;62580;54.416;11.120;2022-12-13T18:21:34;17.80;40.00
74220;DHT22;62580;54.416;11.120;2022-12-13T18:31:36;17.80;40.00
74220;DHT22;62580;54.416;11.120;2022-12-13T18:41:36;17.70;40.10
74220;DHT22;62580;54.416;11.120;2022-12-13T18:51:38;17.70;39.90
74220;DHT22;62580;54.416;11.120;2022-12-13T19:01:39;17.80;39.90
74220;DHT22;62580;54.416;11.120;2022-12-13T19:11:41;17.80;39.90
74220;DHT22;62580;54.416;11.120;2022-12-13T19:21:42;17.80;39.80
74220;DHT22;62580;54.416;11.120;2022-12-13T19:31:44;17.80;39.80
74220;DHT22;62580;54.416;11.120;2022-12-13T19:41:44;17.70;39.90
74220;DHT22;62580;54.416;11.120;2022-12-13T19:51:46;17.70;39.70
74220;DHT22;62580;54.416;11.120;2022-12-13T20:01:47;17.70;39.70
74220;DHT22;62580;54.416;11.120;2022-12-13T20:11:49;17.70;39.70
74220;DHT22;62580;54.416;11.120;2022-12-13T20:21:50;17.80;39.70
74220;DHT22;62580;54.416;11.120;2022-12-13T20:31:51;17.80;39.60
74220;DHT22;62580;54.416;11.120;2022-12-13T20:41:52;17.80;39.50
74220;DHT22;62580;54.416;11.120;2022-12-13T20:51:54;17.80;39.50
74220;DHT22;62580;54.416;11.120;2022-12-13T21:01:55;17.70;39.50
74220;DHT22;62580;54.416;11.120;2022-12-13T21:11:57;17.70;39.50
74220;DHT22;62580;54.416;11.120;2022-12-13T21:21:58;17.70;39.60
74220;DHT22;62580;54.416;11.120;2022-12-13T21:32:00;17.70;39.50
74220;DHT22;62580;54.416;11.120;2022-12-13T21:42:00;17.80;39.50
74220;DHT22;62580;54.416;11.120;2022-12-13T21:52:02;17.80;39.40
74220;DHT22;62580;54.416;11.120;2022-12-13T22:02:05;17.70;39.30
74220;DHT22;62580;54.416;11.120;2022-12-13T22:12:14;17.70;39.20
74220;DHT22;62580;54.416;11.120;2022-12-13T22:22:16;17.70;39.10
74220;DHT22;62580;54.416;11.120;2022-12-13T22:32:18;17.70;39.00
74220;DHT22;62580;54.416;11.120;2022-12-13T22:42:19;17.70;38.80
74220;DHT22;62580;54.416;11.120;2022-12-13T22:52:21;17.80;38.80
74220;DHT22;62580;54.416;11.120;2022-12-13T23:02:22;17.80;38.80
74220;DHT22;62580;54.416;11.120;2022-12-13T23:12:24;17.70;38.70
74220;DHT22;62580;54.416;11.120;2022-12-13T23:22:25;17.70;38.70
74220;DHT22;62580;54.416;11.120;2022-12-13T23:32:27;17.70;38.70
74220;DHT22;62580;54.416;11.120;2022-12-13T23:42:28;17.70;38.60
74220;DHT22;62580;54.416;11.120;2022-12-13T23:52:30;17.70;38.60
